Time;durP1;ratioP1;P1;durP2;ratioP2;P2;SDS_P1;SDS_P2;PMS_P1;PMS_P2;Temp;Humidity;BMP_temperature;BMP_pressure;BME280_temperature;BME280_humidity;BME280_pressure;Samples;Min_cycle;Max_cycle;Signal;HPM_P1;HPM_P2
2021/11/29 00:01:26;;;;;;;43.47;19.83;;;;;;;;;;5111543;28;20102;-71
2021/11/29 00:03:52;;;;;;;43.05;17.90;;;;;;;;;;5109302;28;20035;-71
2021/11/29 00:06:18;;;;;;;49.95;19.38;;;;;;;;;;5108967;28;20391;-68
2021/11/29 00:08:45;;;;;;;35.78;15.63;;;;;;;;;;5108538;28;20074;-70
2021/11/29 00:11:12;;;;;;;38.15;16.60;;;;;;;;;;5108208;28;20020;-69
2021/11/29 00:13:38;;;;;;;38.38;16.27;;;;;;;;;;5111664;28;20024;-69
2021/11/29 00:16:04;;;;;;;38.08;16.23;;;;;;;;;;5109388;28;20053;-70
2021/11/29 00:18:31;;;;;;;36.15;16.40;;;;;;;;;;5108931;28;20552;-71
2021/11/29 00:20:57;;;;;;;44.90;17.90;;;;;;;;;;5108616;28;20107;-71
2021/11/29 00:23:23;;;;;;;37.45;16.42;;;;;;;;;;5108576;28;20165;-71
2021/11/29 00:25:49;;;;;;;36.92;15.30;;;;;;;;;;5111290;28;20027;-71
2021/11/29 00:28:16;;;;;;;42.20;17.10;;;;;;;;;;5109645;28;20044;-71
2021/11/29 00:30:42;;;;;;;32.80;15.80;;;;;;;;;;5108195;27;20379;-71
2021/11/29 00:33:08;;;;;;;33.65;14.68;;;;;;;;;;5106787;28;20118;-69
2021/11/29 00:35:34;;;;;;;42.78;19.40;;;;;;;;;;5108641;28;20031;-71
2021/11/29 00:38:00;;;;;;;35.67;15.23;;;;;;;;;;5109075;28;20084;-71
2021/11/29 00:40:27;;;;;;;26.13;11.57;;;;;;;;;;5111464;28;20099;-69
2021/11/29 00:42:53;;;;;;;21.35;8.68;;;;;;;;;;5108462;28;20479;-69
2021/11/29 00:45:19;;;;;;;36.15;17.17;;;;;;;;;;5108458;28;20102;-71
2021/11/29 00:47:45;;;;;;;29.90;13.00;;;;;;;;;;5108598;28;20402;-69
2021/11/29 00:50:13;;;;;;;33.33;14.50;;;;;;;;;;5108184;28;20036;-69
2021/11/29 00:52:40;;;;;;;29.05;11.75;;;;;;;;;;5111510;28;20019;-70
2021/11/29 00:55:07;;;;;;;35.55;16.38;;;;;;;;;;5109011;28;20024;-70
2021/11/29 00:57:32;;;;;;;38.75;15.55;;;;;;;;;;5108416;28;20058;-70
2021/11/29 00:59:59;;;;;;;32.55;14.55;;;;;;;;;;5107844;28;20055;-71
2021/11/29 01:02:25;;;;;;;19.80;10.15;;;;;;;;;;5106770;28;20406;-70
2021/11/29 01:04:51;;;;;;;25.45;11.65;;;;;;;;;;5111347;28;20023;-70
2021/11/29 01:07:17;;;;;;;19.85;8.90;;;;;;;;;;5110503;28;20118;-70
2021/11/29 01:09:43;;;;;;;44.75;19.42;;;;;;;;;;5107897;28;20405;-70
2021/11/29 01:12:10;;;;;;;38.85;18.40;;;;;;;;;;5107622;28;20032;-70
2021/11/29 01:14:36;;;;;;;33.50;17.45;;;;;;;;;;5107970;28;20059;-70
2021/11/29 01:17:02;;;;;;;28.95;13.75;;;;;;;;;;5108777;28;20039;-71
2021/11/29 01:19:28;;;;;;;31.67;13.23;;;;;;;;;;5111178;28;20526;-71
2021/11/29 01:21:54;;;;;;;31.52;13.98;;;;;;;;;;5107851;28;20027;-71
2021/11/29 01:24:20;;;;;;;27.85;13.43;;;;;;;;;;5108078;28;20027;-71
2021/11/29 01:26:46;;;;;;;31.48;13.88;;;;;;;;;;5107559;28;20027;-71
2021/11/29 01:29:12;;;;;;;32.13;14.65;;;;;;;;;;5108772;28;20092;-71
2021/11/29 01:31:38;;;;;;;31.92;14.77;;;;;;;;;;5109685;28;20050;-71
2021/11/29 01:34:04;;;;;;;29.23;14.55;;;;;;;;;;5108130;28;20445;-71
2021/11/29 01:36:30;;;;;;;37.15;14.30;;;;;;;;;;5106237;28;20036;-71
2021/11/29 01:38:56;;;;;;;28.98;13.70;;;;;;;;;;5107745;28;20054;-71
2021/11/29 01:41:22;;;;;;;24.73;11.23;;;;;;;;;;5107283;28;20024;-70
2021/11/29 01:43:49;;;;;;;22.27;7.85;;;;;;;;;;5110338;28;20082;-70
2021/11/29 01:46:16;;;;;;;34.60;13.85;;;;;;;;;;5111037;28;20027;-70
2021/11/29 01:48:43;;;;;;;30.55;12.77;;;;;;;;;;5111815;28;20027;-70
2021/11/29 01:51:11;;;;;;;22.10;10.02;;;;;;;;;;5111432;28;20055;-70
2021/11/29 01:53:37;;;;;;;31.77;12.18;;;;;;;;;;5111946;28;20424;-69
2021/11/29 01:56:03;;;;;;;23.52;11.32;;;;;;;;;;5095178;28;20043;-69
2021/11/29 01:58:32;;;;;;;24.60;9.77;;;;;;;;;;5114411;28;20390;-70
2021/11/29 02:00:58;;;;;;;;;;;;;;;;;;5111859;28;20024;-70
2021/11/29 02:03:24;;;;;;;28.92;10.48;;;;;;;;;;5111069;28;19929;-70
2021/11/29 02:05:51;;;;;;;26.92;11.25;;;;;;;;;;5110811;28;20023;-70
2021/11/29 02:08:17;;;;;;;22.17;9.77;;;;;;;;;;5111153;28;20032;-70
2021/11/29 02:10:43;;;;;;;21.77;8.70;;;;;;;;;;5113793;28;20024;-70
2021/11/29 02:13:10;;;;;;;17.75;7.75;;;;;;;;;;5110725;28;20075;-70
2021/11/29 02:15:37;;;;;;;12.63;5.63;;;;;;;;;;5111078;28;20028;-70
2021/11/29 02:18:04;;;;;;;26.52;11.57;;;;;;;;;;5110738;28;20028;-69
2021/11/29 02:20:31;;;;;;;24.35;10.35;;;;;;;;;;5110971;28;20016;-70
2021/11/29 02:22:57;;;;;;;15.93;7.75;;;;;;;;;;5112191;28;20098;-70
2021/11/29 02:25:23;;;;;;;22.35;10.10;;;;;;;;;;5113450;28;20032;-70
2021/11/29 02:27:50;;;;;;;20.80;9.00;;;;;;;;;;5110671;28;20034;-70
2021/11/29 02:30:17;;;;;;;23.92;8.75;;;;;;;;;;5109971;28;20051;-70
2021/11/29 02:32:44;;;;;;;20.88;9.88;;;;;;;;;;5110448;28;20116;-70
2021/11/29 02:35:09;;;;;;;20.00;8.38;;;;;;;;;;5110783;28;20043;-70
2021/11/29 02:37:36;;;;;;;18.25;8.20;;;;;;;;;;5113877;28;20032;-70
2021/11/29 02:40:02;;;;;;;18.45;7.43;;;;;;;;;;5111001;28;20054;-70
2021/11/29 02:42:28;;;;;;;18.08;7.30;;;;;;;;;;5110424;28;20027;-70
2021/11/29 02:44:54;;;;;;;14.30;5.95;;;;;;;;;;5110046;28;20486;-70
2021/11/29 02:47:20;;;;;;;16.50;7.35;;;;;;;;;;5110901;28;20060;-70
2021/11/29 02:49:46;;;;;;;23.00;10.38;;;;;;;;;;5112180;28;20035;-70
2021/11/29 02:52:13;;;;;;;18.73;9.40;;;;;;;;;;5111869;28;20106;-70
2021/11/29 02:54:40;;;;;;;22.17;9.10;;;;;;;;;;5110745;28;20034;-70
2021/11/29 02:57:11;;;;;;;22.45;9.63;;;;;;;;;;5110262;27;20023;-70
2021/11/29 02:59:38;;;;;;;23.80;10.27;;;;;;;;;;5109278;28;20276;-70
2021/11/29 03:02:05;;;;;;;22.40;9.13;;;;;;;;;;5094491;28;20121;-70
2021/11/29 03:04:32;;;;;;;22.85;8.75;;;;;;;;;;5109702;28;20027;-70
2021/11/29 03:06:58;;;;;;;13.77;5.05;;;;;;;;;;5110239;28;20028;-70
2021/11/29 03:09:25;;;;;;;17.60;8.10;;;;;;;;;;5109595;28;20040;-70
2021/11/29 03:11:51;;;;;;;15.82;7.50;;;;;;;;;;5109426;28;20390;-70
2021/11/29 03:14:18;;;;;;;14.93;6.72;;;;;;;;;;5109466;28;20042;-70
2021/11/29 03:16:44;;;;;;;13.13;6.00;;;;;;;;;;5111831;28;20116;-70
2021/11/29 03:19:10;;;;;;;17.08;6.32;;;;;;;;;;5111206;28;20036;-70
2021/11/29 03:21:37;;;;;;;20.35;6.35;;;;;;;;;;5109784;28;20024;-70
2021/11/29 03:24:04;;;;;;;12.15;5.28;;;;;;;;;;5109705;28;20470;-70
2021/11/29 03:26:31;;;;;;;11.68;5.25;;;;;;;;;;5110134;28;20487;-70
2021/11/29 03:28:59;;;;;;;14.50;5.95;;;;;;;;;;5110551;28;20032;-70
2021/11/29 03:31:26;;;;;;;10.65;4.95;;;;;;;;;;5112180;28;20040;-70
2021/11/29 03:33:57;;;;;;;12.45;5.35;;;;;;;;;;5110013;28;20045;-70
2021/11/29 03:36:23;;;;;;;14.70;5.65;;;;;;;;;;5108700;28;20103;-70
2021/11/29 03:38:49;;;;;;;13.93;5.97;;;;;;;;;;5109405;28;20032;-70
2021/11/29 03:41:15;;;;;;;20.10;5.95;;;;;;;;;;5109934;28;20110;-70
2021/11/29 03:43:41;;;;;;;13.35;4.82;;;;;;;;;;5112154;28;20124;-70
2021/11/29 03:46:07;;;;;;;16.88;5.22;;;;;;;;;;5110530;28;20487;-70
2021/11/29 03:48:34;;;;;;;9.93;4.13;;;;;;;;;;5109082;28;20050;-70
2021/11/29 03:51:00;;;;;;;10.52;4.70;;;;;;;;;;5109579;28;20028;-70
2021/11/29 03:53:26;;;;;;;11.27;4.45;;;;;;;;;;5109342;28;20035;-70
2021/11/29 03:55:52;;;;;;;10.55;4.00;;;;;;;;;;5110770;28;20059;-70
2021/11/29 03:58:18;;;;;;;11.32;4.82;;;;;;;;;;5110508;28;20463;-70
2021/11/29 04:00:44;;;;;;;15.55;6.22;;;;;;;;;;5108645;28;20043;-70
2021/11/29 04:03:10;;;;;;;12.70;6.60;;;;;;;;;;5109214;28;20076;-70
2021/11/29 04:05:36;;;;;;;13.05;6.15;;;;;;;;;;5110802;28;20123;-70
2021/11/29 04:08:03;;;;;;;15.43;6.97;;;;;;;;;;5108556;28;20526;-70
2021/11/29 04:10:29;;;;;;;15.15;6.15;;;;;;;;;;5112530;28;20027;-70
2021/11/29 04:12:55;;;;;;;10.15;3.55;;;;;;;;;;5108802;28;20035;-70
2021/11/29 04:15:21;;;;;;;5.40;2.28;;;;;;;;;;5107603;28;20023;-70
2021/11/29 04:17:47;;;;;;;9.55;3.97;;;;;;;;;;5108403;28;20356;-70
2021/11/29 04:20:15;;;;;;;9.38;4.30;;;;;;;;;;5109143;28;20271;-70
2021/11/29 04:22:44;;;;;;;8.75;3.95;;;;;;;;;;5111036;28;20027;-70
2021/11/29 04:25:11;;;;;;;9.27;4.38;;;;;;;;;;5111916;28;20034;-70
2021/11/29 04:27:39;;;;;;;12.73;5.03;;;;;;;;;;5108270;28;20106;-70
2021/11/29 04:30:11;;;;;;;;;;;;;;;;;;5108979;28;20027;-70
2021/11/29 04:32:37;;;;;;;9.13;4.15;;;;;;;;;;5107185;28;19916;-70
2021/11/29 04:35:03;;;;;;;8.07;3.13;;;;;;;;;;5099875;28;20031;-70
2021/11/29 04:37:29;;;;;;;14.00;3.95;;;;;;;;;;5108718;28;20024;-70
2021/11/29 04:39:55;;;;;;;11.88;5.45;;;;;;;;;;5104406;28;20450;-70
2021/11/29 04:42:21;;;;;;;11.80;5.28;;;;;;;;;;5105843;28;20035;-71
2021/11/29 04:44:47;;;;;;;15.98;4.93;;;;;;;;;;5104535;28;20028;-70
2021/11/29 04:47:13;;;;;;;10.20;4.43;;;;;;;;;;5103410;28;20440;-70
2021/11/29 04:49:39;;;;;;;9.25;4.03;;;;;;;;;;5108021;28;20040;-69
2021/11/29 04:52:05;;;;;;;11.63;3.50;;;;;;;;;;5108581;28;20032;-68
2021/11/29 04:54:31;;;;;;;13.10;3.83;;;;;;;;;;5109710;28;20114;-69
2021/11/29 04:56:57;;;;;;;13.60;5.53;;;;;;;;;;5107860;28;20020;-72
2021/11/29 04:59:23;;;;;;;15.52;5.20;;;;;;;;;;5106371;28;20055;-69
2021/11/29 05:01:49;;;;;;;13.85;4.22;;;;;;;;;;5110156;28;20051;-70
2021/11/29 05:04:15;;;;;;;9.20;3.90;;;;;;;;;;5109122;28;20027;-70
2021/11/29 05:06:41;;;;;;;11.93;5.05;;;;;;;;;;5107278;28;20028;-69
2021/11/29 05:09:10;;;;;;;8.23;3.92;;;;;;;;;;5107500;28;20483;-70
2021/11/29 05:11:36;;;;;;;8.75;4.40;;;;;;;;;;5107940;28;20085;-72
2021/11/29 05:14:02;;;;;;;10.93;4.97;;;;;;;;;;5106278;28;20523;-69
2021/11/29 05:16:28;;;;;;;8.07;3.25;;;;;;;;;;5111454;28;20084;-71
2021/11/29 05:18:54;;;;;;;7.80;3.75;;;;;;;;;;5107638;28;20575;-71
2021/11/29 05:21:20;;;;;;;11.80;4.82;;;;;;;;;;5112498;28;20122;-71
2021/11/29 05:23:47;;;;;;;9.93;4.45;;;;;;;;;;5112370;28;20490;-71
2021/11/29 05:26:14;;;;;;;13.63;5.00;;;;;;;;;;5112589;28;20024;-69
2021/11/29 05:28:40;;;;;;;13.70;5.57;;;;;;;;;;5114402;28;20114;-71
2021/11/29 05:31:06;;;;;;;6.50;3.33;;;;;;;;;;5112930;28;20058;-69
2021/11/29 05:33:32;;;;;;;11.90;4.90;;;;;;;;;;5111245;28;20043;-71
2021/11/29 05:35:58;;;;;;;11.15;5.22;;;;;;;;;;5111812;28;20032;-71
2021/11/29 05:38:24;;;;;;;11.25;4.82;;;;;;;;;;5112270;28;20499;-72
2021/11/29 05:40:50;;;;;;;11.50;5.40;;;;;;;;;;5101648;28;20055;-72
2021/11/29 05:43:16;;;;;;;15.02;4.97;;;;;;;;;;5112905;28;20027;-69
2021/11/29 05:45:42;;;;;;;10.52;4.00;;;;;;;;;;5111580;28;20080;-69
2021/11/29 05:48:08;;;;;;;5.93;2.28;;;;;;;;;;5111927;28;20472;-71
2021/11/29 05:50:34;;;;;;;10.73;3.58;;;;;;;;;;5111308;28;20039;-71
2021/11/29 05:53:00;;;;;;;11.85;5.05;;;;;;;;;;5112415;28;20028;-67
2021/11/29 05:55:26;;;;;;;9.95;3.85;;;;;;;;;;5114123;28;20080;-68
2021/11/29 05:57:52;;;;;;;14.10;4.00;;;;;;;;;;5111533;28;20035;-70
2021/11/29 06:00:20;;;;;;;13.75;4.80;;;;;;;;;;5111931;28;20031;-69
2021/11/29 06:02:46;;;;;;;7.77;3.93;;;;;;;;;;5111736;28;20080;-71
2021/11/29 06:05:13;;;;;;;14.63;4.97;;;;;;;;;;5111031;28;20024;-71
2021/11/29 06:07:39;;;;;;;13.82;4.40;;;;;;;;;;5114590;28;20035;-71
2021/11/29 06:10:05;;;;;;;14.50;4.93;;;;;;;;;;5112286;28;20063;-70
2021/11/29 06:12:31;;;;;;;9.82;3.47;;;;;;;;;;5110736;28;20028;-70
2021/11/29 06:14:57;;;;;;;9.68;3.83;;;;;;;;;;5111317;28;20035;-71
2021/11/29 06:17:23;;;;;;;10.90;4.05;;;;;;;;;;5111364;28;20024;-71
2021/11/29 06:19:49;;;;;;;11.25;4.35;;;;;;;;;;5113921;28;20397;-70
2021/11/29 06:22:15;;;;;;;9.07;3.65;;;;;;;;;;5112244;28;20072;-71
2021/11/29 06:24:41;;;;;;;6.35;3.05;;;;;;;;;;5110656;28;20084;-71
2021/11/29 06:27:07;;;;;;;6.95;3.17;;;;;;;;;;5111026;28;20479;-71
2021/11/29 06:29:33;;;;;;;10.48;5.07;;;;;;;;;;5110926;28;20031;-70
2021/11/29 06:31:59;;;;;;;15.68;5.53;;;;;;;;;;5110679;28;20395;-69
2021/11/29 06:34:26;;;;;;;13.07;4.53;;;;;;;;;;5112276;28;20039;-69
2021/11/29 06:36:52;;;;;;;20.05;4.15;;;;;;;;;;5110097;28;20034;-69
2021/11/29 06:39:20;;;;;;;9.00;3.35;;;;;;;;;;5110824;28;20494;-67
2021/11/29 06:41:46;;;;;;;8.02;3.22;;;;;;;;;;5110429;28;20474;-67
2021/11/29 06:44:12;;;;;;;14.43;5.40;;;;;;;;;;5111009;28;20120;-67
2021/11/29 06:46:38;;;;;;;13.98;4.65;;;;;;;;;;5114195;28;20506;-69
2021/11/29 06:49:04;;;;;;;8.55;3.58;;;;;;;;;;5110835;28;20046;-68
2021/11/29 06:51:32;;;;;;;8.75;3.47;;;;;;;;;;5109029;28;20027;-67
2021/11/29 06:53:59;;;;;;;;;;;;;;;;;;5110726;28;20036;-68
2021/11/29 06:56:25;;;;;;;10.82;4.13;;;;;;;;;;5110590;28;19908;-68
2021/11/29 06:58:51;;;;;;;9.73;3.10;;;;;;;;;;5102659;28;20020;-68
2021/11/29 07:01:17;;;;;;;6.72;2.53;;;;;;;;;;5112100;28;20538;-68
2021/11/29 07:03:44;;;;;;;12.82;5.05;;;;;;;;;;5109466;28;20023;-69
2021/11/29 07:06:10;;;;;;;10.07;3.90;;;;;;;;;;5112367;27;20075;-67
2021/11/29 07:08:37;;;;;;;9.38;3.78;;;;;;;;;;5110185;28;20036;-68
2021/11/29 07:11:03;;;;;;;10.70;4.05;;;;;;;;;;5085768;28;20071;-69
2021/11/29 07:13:29;;;;;;;11.40;4.90;;;;;;;;;;5098795;28;20468;-69
2021/11/29 07:15:55;;;;;;;9.55;3.72;;;;;;;;;;5108529;28;20072;-69
2021/11/29 07:18:22;;;;;;;10.55;4.10;;;;;;;;;;5106284;28;20502;-69
2021/11/29 07:20:48;;;;;;;5.78;3.03;;;;;;;;;;5109018;28;20055;-69
2021/11/29 07:23:14;;;;;;;12.07;4.78;;;;;;;;;;5109642;28;20036;-69
2021/11/29 07:25:40;;;;;;;12.68;3.97;;;;;;;;;;5112406;28;20027;-69
2021/11/29 07:28:06;;;;;;;11.27;4.28;;;;;;;;;;5110038;28;20077;-69
2021/11/29 07:30:33;;;;;;;10.07;4.00;;;;;;;;;;5100685;28;20035;-69
2021/11/29 07:32:58;;;;;;;14.15;5.68;;;;;;;;;;5101717;28;20083;-69
2021/11/29 07:35:26;;;;;;;12.82;4.90;;;;;;;;;;5109176;28;20109;-69
2021/11/29 07:37:52;;;;;;;23.30;9.52;;;;;;;;;;5110775;28;20035;-69
2021/11/29 07:40:18;;;;;;;15.32;7.55;;;;;;;;;;5110333;28;20061;-70
2021/11/29 07:42:45;;;;;;;16.98;6.40;;;;;;;;;;5108084;28;20103;-69
2021/11/29 07:45:12;;;;;;;20.50;7.68;;;;;;;;;;5108024;28;20028;-69
2021/11/29 07:47:39;;;;;;;24.63;9.18;;;;;;;;;;5109208;28;20391;-69
2021/11/29 07:50:05;;;;;;;17.45;6.80;;;;;;;;;;5094139;28;20501;-69
2021/11/29 07:52:31;;;;;;;27.00;8.88;;;;;;;;;;5112070;28;20442;-69
2021/11/29 07:54:57;;;;;;;19.90;8.93;;;;;;;;;;5108287;28;20038;-69
2021/11/29 07:57:23;;;;;;;17.63;7.40;;;;;;;;;;5108960;28;20110;-69
2021/11/29 07:59:49;;;;;;;18.33;7.72;;;;;;;;;;5108654;28;20027;-69
2021/11/29 08:02:15;;;;;;;23.35;7.82;;;;;;;;;;5106977;28;20042;-69
2021/11/29 08:04:41;;;;;;;17.33;6.93;;;;;;;;;;5110656;28;20080;-69
2021/11/29 08:07:08;;;;;;;15.77;7.07;;;;;;;;;;5110778;28;20016;-69
2021/11/29 08:09:34;;;;;;;13.75;5.82;;;;;;;;;;5105992;28;20045;-69
2021/11/29 08:12:00;;;;;;;12.18;4.55;;;;;;;;;;5104631;28;20466;-69
2021/11/29 08:14:26;;;;;;;8.15;3.17;;;;;;;;;;5108243;28;20036;-69
2021/11/29 08:16:52;;;;;;;2.50;1.27;;;;;;;;;;5111133;28;20023;-69
2021/11/29 08:19:18;;;;;;;3.90;2.08;;;;;;;;;;5110041;28;20069;-69
2021/11/29 08:21:44;;;;;;;3.35;1.42;;;;;;;;;;5108484;28;20038;-69
2021/11/29 08:24:10;;;;;;;7.13;2.72;;;;;;;;;;5108692;28;20032;-69
2021/11/29 08:26:36;;;;;;;5.10;2.30;;;;;;;;;;5108321;28;20043;-69
2021/11/29 08:29:02;;;;;;;4.63;2.05;;;;;;;;;;5109252;28;20039;-69
2021/11/29 08:31:29;;;;;;;1.35;0.57;;;;;;;;;;5110861;28;20621;-68
2021/11/29 08:33:54;;;;;;;1.73;1.00;;;;;;;;;;5108242;28;20532;-68
2021/11/29 08:36:20;;;;;;;3.22;1.20;;;;;;;;;;5108016;28;20027;-69
2021/11/29 08:38:46;;;;;;;1.58;0.70;;;;;;;;;;5108143;28;20394;-69
2021/11/29 08:41:16;;;;;;;0.98;0.60;;;;;;;;;;5107853;28;20498;-69
2021/11/29 08:43:42;;;;;;;0.68;0.30;;;;;;;;;;5111315;28;20027;-69
2021/11/29 08:46:08;;;;;;;0.40;0.30;;;;;;;;;;5110436;28;20023;-69
2021/11/29 08:48:34;;;;;;;0.85;0.47;;;;;;;;;;5108129;28;20079;-68
2021/11/29 08:51:00;;;;;;;0.20;0.13;;;;;;;;;;5107532;28;20123;-69
2021/11/29 08:53:26;;;;;;;6.43;0.25;;;;;;;;;;5108721;28;20059;-69
2021/11/29 08:55:54;;;;;;;1.92;0.45;;;;;;;;;;5116609;28;20016;-69
2021/11/29 08:58:20;;;;;;;0.65;0.32;;;;;;;;;;5116745;28;20032;-69
2021/11/29 09:00:47;;;;;;;0.47;0.30;;;;;;;;;;5113749;28;20030;-69
2021/11/29 09:03:13;;;;;;;0.95;0.13;;;;;;;;;;5115350;28;20042;-69
2021/11/29 09:05:45;;;;;;;0.20;0.20;;;;;;;;;;5116376;28;20032;-69
2021/11/29 09:08:14;;;;;;;1.00;0.47;;;;;;;;;;5099694;28;20024;-69
2021/11/29 09:10:42;;;;;;;0.30;0.30;;;;;;;;;;5116480;28;20027;-69
2021/11/29 09:13:08;;;;;;;1.75;0.60;;;;;;;;;;5117534;28;20024;-69
2021/11/29 09:15:34;;;;;;;0.60;0.40;;;;;;;;;;5114916;28;20019;-69
2021/11/29 09:18:00;;;;;;;0.80;0.35;;;;;;;;;;5116224;28;20027;-68
2021/11/29 09:20:27;;;;;;;0.63;0.47;;;;;;;;;;5115162;28;20047;-69
2021/11/29 09:22:54;;;;;;;0.77;0.30;;;;;;;;;;5116256;28;20023;-69
2021/11/29 09:25:21;;;;;;;1.67;0.32;;;;;;;;;;5117007;28;20046;-69
2021/11/29 09:27:47;;;;;;;1.20;0.40;;;;;;;;;;5113085;28;20457;-69
2021/11/29 09:30:15;;;;;;;0.28;0.20;;;;;;;;;;5113869;27;20108;-69
2021/11/29 09:32:42;;;;;;;0.32;0.32;;;;;;;;;;5114492;28;20050;-69
2021/11/29 09:35:10;;;;;;;1.10;0.40;;;;;;;;;;5114669;28;20027;-69
2021/11/29 09:37:37;;;;;;;1.55;0.45;;;;;;;;;;5118068;27;20517;-69
2021/11/29 09:40:07;;;;;;;1.83;0.70;;;;;;;;;;5116393;27;20455;-69
2021/11/29 09:42:36;;;;;;;1.15;0.60;;;;;;;;;;5114612;28;20034;-71
2021/11/29 09:45:04;;;;;;;0.98;0.52;;;;;;;;;;5115287;28;20457;-69
2021/11/29 09:47:30;;;;;;;1.92;0.60;;;;;;;;;;5115385;28;20486;-69
2021/11/29 09:49:57;;;;;;;2.08;0.90;;;;;;;;;;5116386;28;20052;-69
2021/11/29 09:52:23;;;;;;;1.40;0.38;;;;;;;;;;5103457;28;20483;-70
2021/11/29 09:54:50;;;;;;;2.63;0.60;;;;;;;;;;5116274;28;20036;-71
2021/11/29 09:57:16;;;;;;;2.25;0.90;;;;;;;;;;5115260;28;20111;-70
2021/11/29 09:59:44;;;;;;;1.20;0.50;;;;;;;;;;5112631;28;20593;-69
2021/11/29 10:02:13;;;;;;;1.58;0.85;;;;;;;;;;5111370;28;20031;-69
2021/11/29 10:04:48;;;;;;;1.80;0.80;;;;;;;;;;5117367;27;20019;-70
2021/11/29 10:07:26;;;;;;;1.20;0.60;;;;;;;;;;5113494;28;20015;-69
2021/11/29 10:09:56;;;;;;;0.55;0.45;;;;;;;;;;5111809;28;20035;-70
2021/11/29 10:12:22;;;;;;;1.38;0.60;;;;;;;;;;5111074;28;20050;-69
2021/11/29 10:15:08;;;;;;;0.50;0.40;;;;;;;;;;5113232;28;20031;-68
2021/11/29 10:17:34;;;;;;;1.10;0.50;;;;;;;;;;5110607;28;20042;-71
2021/11/29 10:20:00;;;;;;;0.93;0.40;;;;;;;;;;5112316;28;20020;-71
2021/11/29 10:22:27;;;;;;;1.38;0.55;;;;;;;;;;5113629;28;20060;-71
2021/11/29 10:24:53;;;;;;;0.57;0.40;;;;;;;;;;5111145;28;20023;-70
2021/11/29 10:27:20;;;;;;;1.08;0.70;;;;;;;;;;5110103;28;20562;-70
2021/11/29 10:29:53;;;;;;;1.38;0.40;;;;;;;;;;5110737;28;20027;-70
2021/11/29 10:32:34;;;;;;;0.63;0.35;;;;;;;;;;5109887;28;20098;-69
2021/11/29 10:35:00;;;;;;;2.85;0.50;;;;;;;;;;5112142;28;20028;-69
2021/11/29 10:37:33;;;;;;;1.48;0.80;;;;;;;;;;5113548;28;20027;-69
2021/11/29 10:39:59;;;;;;;1.45;0.50;;;;;;;;;;5111696;28;20019;-71
2021/11/29 10:42:26;;;;;;;1.08;0.43;;;;;;;;;;5109889;28;20023;-71
2021/11/29 10:44:54;;;;;;;1.30;0.47;;;;;;;;;;5110916;28;20402;-69
2021/11/29 10:47:21;;;;;;;1.73;0.45;;;;;;;;;;5109680;28;20028;-70
2021/11/29 10:49:51;;;;;;;1.63;0.40;;;;;;;;;;5112741;28;20063;-71
2021/11/29 10:52:18;;;;;;;0.60;0.50;;;;;;;;;;5113106;28;20053;-71
2021/11/29 10:54:44;;;;;;;0.90;0.57;;;;;;;;;;5111375;28;20111;-70
2021/11/29 10:57:11;;;;;;;2.83;0.73;;;;;;;;;;5109578;28;20058;-70
2021/11/29 10:59:38;;;;;;;0.50;0.40;;;;;;;;;;5111774;28;20023;-70
2021/11/29 11:02:11;;;;;;;1.95;0.50;;;;;;;;;;5097630;28;20043;-70
2021/11/29 11:04:39;;;;;;;0.85;0.40;;;;;;;;;;5100280;28;20046;-70
2021/11/29 11:07:08;;;;;;;1.13;0.70;;;;;;;;;;5112127;28;20024;-70
2021/11/29 11:09:36;;;;;;;2.15;0.70;;;;;;;;;;5106678;28;20035;-72
2021/11/29 11:12:07;;;;;;;0.70;0.50;;;;;;;;;;5109406;28;20050;-70
2021/11/29 11:14:33;;;;;;;1.42;0.80;;;;;;;;;;5109047;28;20110;-68
2021/11/29 11:16:59;;;;;;;1.80;0.70;;;;;;;;;;5107614;28;20115;-69
2021/11/29 11:19:25;;;;;;;2.80;1.27;;;;;;;;;;5104617;28;20049;-69
2021/11/29 11:21:52;;;;;;;1.70;0.90;;;;;;;;;;5108884;28;20614;-69
2021/11/29 11:24:26;;;;;;;0.88;0.60;;;;;;;;;;5108273;28;20058;-69
2021/11/29 11:26:56;;;;;;;1.17;0.60;;;;;;;;;;5109859;28;20019;-68
2021/11/29 11:29:40;;;;;;;2.10;0.82;;;;;;;;;;5104524;28;20067;-72
2021/11/29 11:32:09;;;;;;;1.40;0.70;;;;;;;;;;5106238;28;20447;-70
2021/11/29 11:34:36;;;;;;;1.73;0.70;;;;;;;;;;5109803;28;20032;-71
2021/11/29 11:37:02;;;;;;;5.13;0.85;;;;;;;;;;5108834;28;20535;-68
2021/11/29 11:39:28;;;;;;;1.65;0.90;;;;;;;;;;5088746;28;20042;-69
2021/11/29 11:41:55;;;;;;;2.25;0.93;;;;;;;;;;5094174;28;20060;-71
2021/11/29 11:44:22;;;;;;;2.72;0.90;;;;;;;;;;5097806;28;20111;-67
2021/11/29 11:46:50;;;;;;;1.88;0.70;;;;;;;;;;5106801;28;20443;-67
2021/11/29 11:49:16;;;;;;;1.90;0.85;;;;;;;;;;5107129;28;20038;-68
2021/11/29 11:51:42;;;;;;;1.63;0.73;;;;;;;;;;5107628;28;20020;-66
2021/11/29 11:54:08;;;;;;;3.15;1.30;;;;;;;;;;5108852;28;20098;-68
2021/11/29 11:56:34;;;;;;;1.58;1.00;;;;;;;;;;5101497;28;20172;-68
2021/11/29 11:59:10;;;;;;;0.90;0.60;;;;;;;;;;5087083;28;20058;-66
2021/11/29 12:01:39;;;;;;;2.45;0.93;;;;;;;;;;5105780;28;20039;-66
2021/11/29 12:04:10;;;;;;;1.63;0.93;;;;;;;;;;5107977;28;20028;-67
2021/11/29 12:06:37;;;;;;;2.03;0.57;;;;;;;;;;5108876;28;20035;-69
2021/11/29 12:09:06;;;;;;;2.97;1.17;;;;;;;;;;5093578;28;20112;-68
2021/11/29 12:11:36;;;;;;;1.58;0.73;;;;;;;;;;5106479;28;20023;-67
2021/11/29 12:14:26;;;;;;;2.92;1.25;;;;;;;;;;5107599;28;20028;-69
2021/11/29 12:16:57;;;;;;;2.13;0.95;;;;;;;;;;5107662;28;20034;-68
2021/11/29 12:19:26;;;;;;;3.70;1.20;;;;;;;;;;5110285;28;20027;-68
2021/11/29 12:21:53;;;;;;;0.98;0.68;;;;;;;;;;5102203;28;20026;-67
2021/11/29 12:24:21;;;;;;;1.50;0.75;;;;;;;;;;5107374;28;20063;-68
2021/11/29 12:26:48;;;;;;;3.50;1.30;;;;;;;;;;5107795;27;20073;-67
2021/11/29 12:29:23;;;;;;;2.38;0.80;;;;;;;;;;5106781;28;20042;-68
2021/11/29 12:32:08;;;;;;;1.45;0.82;;;;;;;;;;5109540;28;20081;-68
2021/11/29 12:34:50;;;;;;;2.22;0.90;;;;;;;;;;5106844;28;20378;-67
2021/11/29 12:37:27;;;;;;;2.83;0.70;;;;;;;;;;5109831;28;20043;-67
2021/11/29 12:39:55;;;;;;;2.33;0.80;;;;;;;;;;5107538;28;20020;-68
2021/11/29 12:42:26;;;;;;;1.63;0.82;;;;;;;;;;5106435;28;20028;-67
2021/11/29 12:44:53;;;;;;;1.65;0.80;;;;;;;;;;5106786;28;20505;-67
2021/11/29 12:47:20;;;;;;;0.80;0.60;;;;;;;;;;5107443;28;20028;-69
2021/11/29 12:49:47;;;;;;;1.80;0.70;;;;;;;;;;5106736;28;20038;-68
2021/11/29 12:52:31;;;;;;;1.55;0.80;;;;;;;;;;5109079;28;20021;-68
2021/11/29 12:54:58;;;;;;;0.90;0.50;;;;;;;;;;5106614;28;20483;-68
2021/11/29 12:57:24;;;;;;;2.40;0.80;;;;;;;;;;5107653;28;20032;-68
2021/11/29 12:59:54;;;;;;;1.10;0.80;;;;;;;;;;5106818;28;20042;-71
2021/11/29 13:02:38;;;;;;;0.85;0.50;;;;;;;;;;5107301;28;20024;-72
2021/11/29 13:05:23;;;;;;;1.67;0.52;;;;;;;;;;5092685;28;20110;-71
2021/11/29 13:08:08;;;;;;;1.02;0.68;;;;;;;;;;5106927;28;20383;-71
2021/11/29 13:10:49;;;;;;;1.15;0.47;;;;;;;;;;5110726;28;20110;-70
2021/11/29 13:13:33;;;;;;;0.77;0.40;;;;;;;;;;5110663;28;20312;-70
2021/11/29 13:16:04;;;;;;;0.80;0.60;;;;;;;;;;5105916;28;20052;-70
2021/11/29 13:18:49;;;;;;;2.45;0.52;;;;;;;;;;5106739;28;20027;-70
2021/11/29 13:21:35;;;;;;;0.22;0.10;;;;;;;;;;5102525;28;20149;-70
2021/11/29 13:24:05;;;;;;;2.70;0.82;;;;;;;;;;5107850;28;20065;-70
2021/11/29 13:26:33;;;;;;;0.98;0.40;;;;;;;;;;5108116;28;20019;-70
2021/11/29 13:29:04;;;;;;;1.80;0.90;;;;;;;;;;5105565;28;20039;-70
2021/11/29 13:31:35;;;;;;;0.45;0.20;;;;;;;;;;5104045;28;20068;-70
2021/11/29 13:34:02;;;;;;;0.93;0.30;;;;;;;;;;5108035;28;20112;-70
2021/11/29 13:36:39;;;;;;;1.27;0.70;;;;;;;;;;5107381;28;20031;-70
2021/11/29 13:39:10;;;;;;;1.37;0.80;;;;;;;;;;5107559;28;20399;-70
2021/11/29 13:41:36;;;;;;;1.17;0.50;;;;;;;;;;5109341;28;20015;-69
2021/11/29 13:44:18;;;;;;;0.93;0.47;;;;;;;;;;5112380;28;20192;-69
2021/11/29 13:47:03;;;;;;;1.15;0.35;;;;;;;;;;5110822;28;20027;-69
2021/11/29 13:49:32;;;;;;;1.20;0.50;;;;;;;;;;5114289;28;20035;-70
2021/11/29 13:51:59;;;;;;;1.73;0.90;;;;;;;;;;5111267;28;20070;-70
2021/11/29 13:54:25;;;;;;;1.85;0.52;;;;;;;;;;5111908;28;20027;-73
2021/11/29 13:56:51;;;;;;;1.30;0.73;;;;;;;;;;5109869;28;20024;-73
2021/11/29 13:59:17;;;;;;;0.22;0.22;;;;;;;;;;5111590;28;20077;-73
2021/11/29 14:01:43;;;;;;;2.05;0.50;;;;;;;;;;5108021;28;20068;-71
2021/11/29 14:04:09;;;;;;;1.15;0.60;;;;;;;;;;5112461;28;20024;-72
2021/11/29 14:06:35;;;;;;;1.20;0.57;;;;;;;;;;5113269;28;20028;-73
2021/11/29 14:09:01;;;;;;;0.63;0.50;;;;;;;;;;5108538;28;20037;-71
2021/11/29 14:11:29;;;;;;;0.98;0.50;;;;;;;;;;5101570;28;20023;-73
2021/11/29 14:14:03;;;;;;;1.48;0.52;;;;;;;;;;5113190;28;20490;-72
2021/11/29 14:16:49;;;;;;;1.02;0.50;;;;;;;;;;5114316;28;20026;-72
2021/11/29 14:19:15;;;;;;;1.08;0.40;;;;;;;;;;5113396;28;20096;-71
2021/11/29 14:21:45;;;;;;;0.75;0.45;;;;;;;;;;5110902;28;20475;-75
2021/11/29 14:24:12;;;;;;;0.85;0.40;;;;;;;;;;5110755;28;20126;-75
2021/11/29 14:26:38;;;;;;;0.97;0.50;;;;;;;;;;5110972;28;20388;-72
2021/11/29 14:29:17;;;;;;;2.38;0.70;;;;;;;;;;5093775;28;20028;-71
2021/11/29 14:31:44;;;;;;;2.92;0.93;;;;;;;;;;5109226;28;20110;-73
2021/11/29 14:34:11;;;;;;;1.80;0.70;;;;;;;;;;5112860;28;20027;-71
2021/11/29 14:36:40;;;;;;;1.65;0.70;;;;;;;;;;5109209;28;20043;-72
2021/11/29 14:39:08;;;;;;;0.77;0.60;;;;;;;;;;5109926;28;20023;-72